LGKP Airport Information

Runway Information
Runway 12 Length 7871 ft width 98 ft
Elevation 36 ft Threshold 492 ft Heading 124
Runway 30 Length 7871 ft Width 98 ft
Elevation 62 ft Threshold 492 ft Heading 304
Airport Frequencies
Type A/G Name RDO Frequency 563.7 MHZ
Type INFO Name INFO Frequency 122.1 MHZ
Airport Navaids
Type NDB Name Karpathos Frequency 314 KHZ
Type TACAN Name Karpathos Frequency 109600 KHZ
Airport Weather Information & NOTAM
ADDS - METARS form results

(2222 UTC 14 August 2022)
Data provider http://aviationweather.gov/metar/data/
 
METAR text: LGKP 142200Z AUTO 29010KT //// // ////// 24/22 Q1006 RERA
Conditions at: LGKP (KARPATHOS , GR) observed 2200 UTC 14 August 2022
Temperature: 24.0°C (75°F)
Dewpoint: 22.0°C (72°F) [RH = 89%]
Pressure (altimeter): 29.70 inches Hg (1006.0 mb)
Winds: from the WNW (290 degrees) at 12 MPH (10 knots; 5.1 m/s)
Visibility: missing
Ceiling: unknown
Clouds: missing
Weather: no significant weather observed at this time

METAR text: LGKP 142130Z AUTO VRB03KT //// -RA ////// 24/22 Q1006 RE//
Conditions at: LGKP (KARPATHOS , GR) observed 2130 UTC 14 August 2022
Temperature: 24.0°C (75°F)
Dewpoint: 22.0°C (72°F) [RH = 89%]
Pressure (altimeter): 29.70 inches Hg (1006.0 mb)
Winds: variable direction winds at 3 MPH (3 knots; 1.5 m/s)
Visibility: missing
Ceiling: unknown
Clouds: missing
Weather: -RA  (light rain)

Forecast for: LGKP (KARPATHOS , GR)
Text: TAF LGKP 142000Z 1421/1506 32012G22KT 9999 FEW018
Forecast period: 2100 UTC 14 August 2022 to 0600 UTC 15 August 2022
Forecast type: FROM: standard forecast or significant change
Winds: from the NW (320 degrees) at 14 MPH (12 knots; 6.2 m/s)
gusting to 25 MPH (22 knots; 11.3 m/s)
Visibility: 6 or more miles (10+ km)
Ceiling: at least 12,000 feet AGL
Clouds: few clouds at 1800 feet AGL
Weather: no significant weather forecast for this period